createdAt,value
2024-04-12T00:02:13.652Z,13.07
2024-04-12T00:04:42.866Z,13.08
2024-04-12T00:07:19.393Z,13.10
2024-04-12T00:09:55.799Z,13.11
2024-04-12T00:12:29.758Z,13.11
2024-04-12T00:15:04.174Z,13.14
2024-04-12T00:17:35.248Z,13.14
2024-04-12T00:20:03.287Z,13.19
2024-04-12T00:22:33.978Z,13.17
2024-04-12T00:25:01.720Z,13.14
2024-04-12T00:27:35.772Z,13.19
2024-04-12T00:30:05.904Z,13.19
2024-04-12T00:32:37.910Z,13.20
2024-04-12T00:35:08.046Z,13.17
2024-04-12T00:37:41.421Z,13.16
2024-04-12T00:40:09.745Z,13.17
2024-04-12T00:42:39.635Z,13.20
2024-04-12T00:45:13.516Z,13.21
2024-04-12T00:47:43.904Z,13.19
2024-04-12T00:50:17.981Z,13.20
2024-04-12T00:52:54.043Z,13.24
2024-04-12T00:55:21.426Z,13.24
2024-04-12T00:57:53.665Z,13.24
2024-04-12T01:00:21.797Z,13.26
2024-04-12T01:02:52.787Z,13.23
2024-04-12T01:05:21.176Z,13.24
2024-04-12T01:07:57.724Z,13.21
2024-04-12T01:10:28.168Z,13.20
2024-04-12T01:13:04.461Z,13.21
2024-04-12T01:15:33.760Z,13.20
2024-04-12T01:18:06.790Z,13.21
2024-04-12T01:20:36.355Z,13.20
2024-04-12T01:23:07.509Z,13.19
2024-04-12T01:25:36.131Z,13.17
2024-04-12T01:28:06.619Z,13.19
2024-04-12T01:30:36.507Z,13.14
2024-04-12T01:33:08.053Z,13.17
2024-04-12T01:35:35.668Z,13.14
2024-04-12T01:38:20.208Z,13.16
2024-04-12T01:40:58.330Z,13.16
2024-04-12T01:43:29.436Z,13.16
2024-04-12T01:45:57.096Z,13.14
2024-04-12T01:48:30.411Z,13.14
2024-04-12T01:50:57.951Z,13.10
2024-04-12T01:53:28.607Z,13.10
2024-04-12T01:55:56.573Z,13.06
2024-04-12T01:58:28.300Z,13.03
2024-04-12T02:00:55.926Z,13.03
2024-04-12T02:03:31.595Z,12.99
2024-04-12T02:05:59.357Z,13.01
2024-04-12T02:08:29.345Z,12.99
2024-04-12T02:10:57.094Z,13.00
2024-04-12T02:13:38.708Z,12.99
2024-04-12T02:16:07.393Z,12.97
2024-04-12T02:18:37.727Z,12.96
2024-04-12T02:21:06.670Z,12.94
2024-04-12T02:23:39.098Z,12.94
2024-04-12T02:26:06.367Z,12.91
2024-04-12T02:28:37.740Z,12.90
2024-04-12T02:31:10.464Z,12.93
2024-04-12T02:33:43.976Z,12.90
2024-04-12T02:36:13.507Z,12.90
2024-04-12T02:38:44.915Z,12.91
2024-04-12T02:41:15.520Z,12.91
2024-04-12T02:43:53.227Z,12.90
2024-04-12T02:46:22.127Z,12.93
2024-04-12T02:48:52.921Z,12.94
2024-04-12T02:51:24.339Z,12.96
2024-04-12T02:53:59.413Z,12.94
2024-04-12T02:56:27.049Z,12.96
2024-04-12T02:58:58.856Z,12.99
2024-04-12T03:01:27.709Z,12.96
2024-04-12T03:04:01.484Z,12.96
2024-04-12T03:06:34.086Z,12.97
2024-04-12T03:09:06.761Z,12.94
2024-04-12T03:11:36.577Z,12.96
2024-04-12T03:14:13.908Z,12.94
2024-04-12T03:16:42.669Z,12.93
2024-04-12T03:19:17.235Z,12.91
2024-04-12T03:21:45.325Z,12.94
2024-04-12T03:24:15.413Z,12.90
2024-04-12T03:26:44.984Z,12.96
2024-04-12T03:29:18.480Z,12.93
2024-04-12T03:31:48.489Z,12.91
2024-04-12T03:34:18.980Z,12.96
2024-04-12T03:36:58.192Z,12.91
2024-04-12T03:39:33.891Z,12.93
2024-04-12T03:42:06.633Z,12.91
2024-04-12T03:44:44.134Z,12.89
2024-04-12T03:47:13.182Z,12.91
2024-04-12T03:49:45.633Z,12.91
2024-04-12T03:52:16.914Z,12.91
2024-04-12T03:54:49.848Z,12.93
2024-04-12T03:57:17.548Z,12.94
2024-04-12T03:59:48.009Z,12.96
2024-04-12T04:02:20.501Z,12.94
2024-04-12T04:04:49.363Z,12.94
2024-04-12T04:07:21.386Z,12.94
2024-04-12T04:09:49.050Z,12.97
2024-04-12T04:12:19.497Z,13.00
2024-04-12T04:14:50.306Z,13.00
2024-04-12T04:17:31.751Z,13.03
2024-04-12T04:20:00.233Z,13.03
2024-04-12T04:22:43.417Z,13.04
2024-04-12T04:25:15.185Z,13.06
2024-04-12T04:27:42.485Z,13.04
2024-04-12T04:30:18.172Z,13.07
2024-04-12T04:32:45.917Z,13.06
2024-04-12T04:35:15.783Z,13.04
2024-04-12T04:37:43.144Z,13.06
2024-04-12T04:40:19.145Z,13.08
2024-04-12T04:42:52.164Z,13.07
2024-04-12T04:45:23.652Z,13.06
2024-04-12T04:47:52.123Z,13.03
2024-04-12T04:50:22.831Z,13.03
2024-04-12T04:52:52.604Z,13.01
2024-04-12T04:55:22.736Z,13.00
2024-04-12T04:57:56.995Z,13.01
2024-04-12T05:00:29.528Z,13.01
2024-04-12T05:02:57.303Z,13.03
2024-04-12T05:05:29.807Z,13.04
2024-04-12T05:07:59.477Z,13.07
2024-04-12T05:10:36.268Z,13.08
2024-04-12T05:13:07.356Z,13.07
2024-04-12T05:15:55.939Z,13.11
2024-04-12T05:18:23.615Z,13.13
2024-04-12T05:20:53.666Z,13.16
2024-04-12T05:23:22.655Z,13.21
2024-04-12T05:25:52.761Z,13.27
2024-04-12T05:28:21.357Z,13.34
2024-04-12T05:30:56.689Z,13.37
2024-04-12T05:33:26.342Z,13.42
2024-04-12T05:35:56.458Z,13.44
2024-04-12T05:38:25.682Z,13.49
2024-04-12T05:40:58.786Z,13.54
2024-04-12T05:43:26.763Z,13.59
2024-04-12T05:45:58.880Z,13.63
2024-04-12T05:48:26.642Z,13.66
2024-04-12T05:50:58.689Z,13.63
2024-04-12T05:53:27.408Z,13.62
2024-04-12T05:56:17.390Z,13.62
2024-04-12T05:58:44.654Z,13.62
2024-04-12T06:01:14.698Z,13.65
2024-04-12T06:03:44.420Z,13.66
2024-04-12T06:06:15.390Z,13.68
2024-04-12T06:08:43.678Z,13.69
2024-04-12T06:11:14.650Z,13.73
2024-04-12T06:13:42.113Z,13.78
2024-04-12T06:16:12.984Z,13.81
2024-04-12T06:18:40.292Z,13.89
2024-04-12T06:21:12.043Z,13.89
2024-04-12T06:23:39.753Z,13.90
2024-04-12T06:26:10.256Z,13.96
2024-04-12T06:28:39.279Z,13.98
2024-04-12T06:31:09.183Z,13.99
2024-04-12T06:33:36.797Z,13.96
2024-04-12T06:36:13.476Z,13.96
2024-04-12T06:38:41.205Z,13.90
2024-04-12T06:41:11.852Z,13.85
2024-04-12T06:43:44.018Z,13.82
2024-04-12T06:46:15.006Z,13.82
2024-04-12T06:48:43.210Z,13.78
2024-04-12T06:51:15.695Z,13.78
2024-04-12T06:53:46.158Z,13.81
2024-04-12T06:56:18.282Z,13.81
2024-04-12T06:58:47.647Z,13.85
2024-04-12T07:01:23.804Z,13.89
2024-04-12T07:03:54.530Z,13.95
2024-04-12T07:06:27.001Z,13.99
2024-04-12T07:08:54.355Z,14.09
2024-04-12T07:11:25.923Z,14.19
2024-04-12T07:13:54.884Z,14.28
2024-04-12T07:16:25.272Z,14.40
2024-04-12T07:18:52.998Z,14.50
2024-04-12T07:21:24.925Z,14.60
2024-04-12T07:23:55.411Z,14.65
2024-04-12T07:26:29.491Z,14.69
2024-04-12T07:28:59.653Z,14.75
2024-04-12T07:31:38.549Z,14.81
2024-04-12T07:34:07.263Z,14.85
2024-04-12T07:36:38.826Z,14.91
2024-04-12T07:39:09.840Z,14.99
2024-04-12T07:41:45.224Z,15.06
2024-04-12T07:44:13.787Z,15.12
2024-04-12T07:46:50.811Z,15.15
2024-04-12T07:49:19.353Z,15.20
2024-04-12T07:51:50.975Z,15.27
2024-04-12T07:54:19.490Z,15.39
2024-04-12T07:56:51.310Z,15.51
2024-04-12T07:59:26.532Z,15.57
2024-04-12T08:01:59.144Z,15.61
2024-04-12T08:04:30.910Z,15.68
2024-04-12T08:07:00.803Z,15.78
2024-04-12T08:09:36.335Z,15.75
2024-04-12T08:12:15.384Z,15.64
2024-04-12T08:14:53.446Z,15.61
2024-04-12T08:17:25.972Z,15.61
2024-04-12T08:19:57.037Z,15.65
2024-04-12T08:22:27.961Z,15.73
2024-04-12T08:24:56.268Z,15.79
2024-04-12T08:27:31.755Z,15.84
2024-04-12T08:29:59.719Z,15.85
2024-04-12T08:32:35.092Z,15.92
2024-04-12T08:35:08.563Z,15.98
2024-04-12T08:37:40.979Z,16.09
2024-04-12T08:40:12.025Z,16.14
2024-04-12T08:42:43.594Z,16.19
2024-04-12T08:45:20.295Z,16.22
2024-04-12T08:48:03.706Z,16.16
2024-04-12T08:50:33.424Z,16.14
2024-04-12T08:53:06.711Z,16.18
2024-04-12T08:55:36.529Z,16.21
2024-04-12T08:58:08.504Z,16.18
2024-04-12T09:00:37.355Z,16.18
2024-04-12T09:03:13.255Z,16.12
2024-04-12T09:05:43.654Z,16.11
2024-04-12T09:08:19.544Z,16.15
2024-04-12T09:10:47.724Z,16.19
2024-04-12T09:13:21.275Z,16.25
2024-04-12T09:15:51.679Z,16.29
2024-04-12T09:18:28.519Z,16.28
2024-04-12T09:21:04.178Z,16.30
2024-04-12T09:23:38.328Z,16.36
2024-04-12T09:26:23.701Z,16.39
2024-04-12T09:29:03.286Z,16.46
2024-04-12T09:31:50.984Z,16.49
2024-04-12T09:34:31.513Z,16.56
2024-04-12T09:37:03.908Z,16.56
2024-04-12T09:39:53.472Z,16.59
2024-04-12T09:42:29.432Z,16.66
2024-04-12T09:45:01.607Z,16.70
2024-04-12T09:47:47.994Z,16.79
2024-04-12T09:50:49.817Z,16.92
2024-04-12T09:53:38.106Z,17.00
2024-04-12T09:56:28.238Z,17.05
2024-04-12T09:59:25.064Z,17.21
2024-04-12T10:02:15.668Z,17.21
2024-04-12T10:05:02.113Z,17.28
2024-04-12T10:07:49.216Z,17.34
2024-04-12T10:10:36.121Z,17.24
2024-04-12T10:13:24.424Z,17.34
2024-04-12T10:16:17.168Z,17.52
2024-04-12T10:19:03.445Z,17.62
2024-04-12T10:21:49.942Z,17.72
2024-04-12T10:24:35.791Z,17.65
2024-04-12T10:27:21.901Z,17.63
2024-04-12T10:30:10.543Z,17.53
2024-04-12T10:32:59.993Z,17.50
2024-04-12T10:35:46.348Z,17.45
2024-04-12T10:38:27.508Z,17.35
2024-04-12T10:41:09.423Z,17.29
2024-04-12T10:43:40.697Z,17.34
2024-04-12T10:46:12.066Z,17.35
2024-04-12T10:48:45.963Z,17.38
2024-04-12T10:51:17.019Z,17.42
2024-04-12T10:53:50.814Z,17.50
2024-04-12T10:56:21.198Z,17.58
2024-04-12T10:58:53.996Z,17.69
2024-04-12T11:01:24.942Z,17.84
2024-04-12T11:04:01.059Z,17.93
2024-04-12T11:06:33.256Z,18.04
2024-04-12T11:09:10.418Z,18.10
2024-04-12T11:11:40.201Z,18.21
2024-04-12T11:14:17.364Z,18.38
2024-04-12T11:17:05.188Z,18.62
2024-04-12T11:19:54.440Z,18.83
2024-04-12T11:22:47.303Z,19.04
2024-04-12T11:25:34.157Z,19.10
2024-04-12T11:28:20.463Z,19.30
2024-04-12T11:31:06.769Z,19.47
2024-04-12T11:33:47.860Z,19.59
2024-04-12T11:36:21.528Z,19.74
2024-04-12T11:38:55.405Z,19.90
2024-04-12T11:41:25.399Z,19.90
2024-04-12T11:43:56.346Z,19.92
2024-04-12T11:46:25.710Z,20.06
2024-04-12T11:48:58.407Z,20.22
2024-04-12T11:51:34.648Z,20.39
2024-04-12T11:54:06.788Z,20.48
2024-04-12T11:56:34.120Z,20.41
2024-04-12T11:59:04.532Z,20.39
2024-04-12T12:01:33.525Z,20.37
2024-04-12T12:04:07.067Z,20.22
2024-04-12T12:06:34.465Z,20.26
2024-04-12T12:09:13.417Z,20.41
2024-04-12T12:11:44.697Z,20.41
2024-04-12T12:14:14.912Z,20.41
2024-04-12T12:16:42.171Z,20.44
2024-04-12T12:19:14.493Z,20.44
2024-04-12T12:21:43.058Z,20.54
2024-04-12T12:24:14.072Z,20.60
2024-04-12T12:26:41.792Z,20.64
2024-04-12T12:29:14.781Z,20.71
2024-04-12T12:31:45.842Z,20.78
2024-04-12T12:34:16.396Z,20.87
2024-04-12T12:36:45.368Z,20.94
2024-04-12T12:39:15.302Z,21.05
2024-04-12T12:41:47.032Z,21.18
2024-04-12T12:44:19.691Z,21.19
2024-04-12T12:46:47.108Z,21.19
2024-04-12T12:49:20.327Z,21.16
2024-04-12T12:51:49.425Z,21.11
2024-04-12T12:54:19.936Z,20.95
2024-04-12T12:56:47.806Z,20.92
2024-04-12T12:59:22.585Z,20.96
2024-04-12T13:01:53.116Z,21.08
2024-04-12T13:04:23.433Z,21.18
2024-04-12T13:06:50.865Z,21.25
2024-04-12T13:09:21.014Z,21.16
2024-04-12T13:11:48.324Z,21.18
2024-04-12T13:14:19.035Z,21.18
2024-04-12T13:16:50.642Z,21.21
2024-04-12T13:19:22.620Z,21.29
2024-04-12T13:21:50.484Z,21.42
2024-04-12T13:24:20.727Z,21.46
2024-04-12T13:26:51.962Z,21.47
2024-04-12T13:29:27.700Z,21.31
2024-04-12T13:31:58.585Z,21.21
2024-04-12T13:34:28.653Z,21.19
2024-04-12T13:36:59.613Z,21.22
2024-04-12T13:39:36.270Z,21.21
2024-04-12T13:42:05.226Z,21.28
2024-04-12T13:44:47.855Z,21.31
2024-04-12T13:47:34.243Z,21.32
2024-04-12T13:50:21.004Z,21.33
2024-04-12T13:52:54.767Z,21.36
2024-04-12T13:55:24.906Z,21.39
2024-04-12T13:57:54.637Z,21.46
2024-04-12T14:00:31.897Z,21.42
2024-04-12T14:03:00.631Z,21.43
2024-04-12T14:05:36.053Z,21.49
2024-04-12T14:08:08.979Z,21.47
2024-04-12T14:10:42.552Z,21.52
2024-04-12T14:13:18.713Z,21.46
2024-04-12T14:15:51.633Z,21.39
2024-04-12T14:18:19.684Z,21.38
2024-04-12T14:20:50.217Z,21.38
2024-04-12T14:23:18.672Z,21.45
2024-04-12T14:25:49.743Z,21.46
2024-04-12T14:28:17.540Z,21.47
2024-04-12T14:30:48.721Z,21.46
2024-04-12T14:33:16.688Z,21.50
2024-04-12T14:35:47.630Z,21.54
2024-04-12T14:38:17.469Z,21.58
2024-04-12T14:40:53.631Z,21.60
2024-04-12T14:43:21.490Z,21.60
2024-04-12T14:45:52.118Z,21.53
2024-04-12T14:48:20.080Z,21.50
2024-04-12T14:50:51.470Z,21.47
2024-04-12T14:53:19.336Z,21.45
2024-04-12T14:55:51.310Z,21.42
2024-04-12T14:58:21.925Z,21.36
2024-04-12T15:00:53.934Z,21.40
2024-04-12T15:03:40.339Z,21.43
2024-04-12T15:06:27.495Z,21.36
2024-04-12T15:09:20.890Z,21.36
2024-04-12T15:12:07.504Z,21.39
2024-04-12T15:14:55.540Z,21.40
2024-04-12T15:17:42.927Z,21.29
2024-04-12T15:20:29.227Z,21.22
2024-04-12T15:23:16.058Z,21.21
2024-04-12T15:26:02.211Z,21.21
2024-04-12T15:28:48.991Z,21.21
2024-04-12T15:31:35.350Z,21.15
2024-04-12T15:34:22.290Z,21.15
2024-04-12T15:37:08.917Z,21.18
2024-04-12T15:39:55.746Z,21.18
2024-04-12T15:42:41.792Z,21.08
2024-04-12T15:45:28.193Z,20.99
2024-04-12T15:47:59.132Z,20.94
2024-04-12T15:50:34.235Z,20.92
2024-04-12T15:53:19.696Z,20.96
2024-04-12T15:56:20.956Z,20.95
2024-04-12T15:59:07.528Z,20.88
2024-04-12T16:01:53.812Z,20.78
2024-04-12T16:04:40.801Z,20.74
2024-04-12T16:07:41.861Z,20.68
2024-04-12T16:10:27.965Z,20.61
2024-04-12T16:12:58.867Z,20.55
2024-04-12T16:15:29.294Z,20.44
2024-04-12T16:18:00.123Z,20.39
2024-04-12T16:20:32.409Z,20.36
2024-04-12T16:23:00.586Z,20.36
2024-04-12T16:25:31.330Z,20.33
2024-04-12T16:27:59.317Z,20.32
2024-04-12T16:30:32.611Z,20.23
2024-04-12T16:33:00.797Z,20.20
2024-04-12T16:35:31.618Z,20.10
2024-04-12T16:38:03.154Z,20.01
2024-04-12T16:40:35.737Z,19.96
2024-04-12T16:43:06.723Z,19.92
2024-04-12T16:45:37.925Z,19.86
2024-04-12T16:48:06.923Z,19.81
2024-04-12T16:50:37.415Z,19.78
2024-04-12T16:53:05.371Z,19.76
2024-04-12T16:55:35.863Z,19.76
2024-04-12T16:58:10.580Z,19.78
2024-04-12T17:00:47.427Z,19.76
2024-04-12T17:03:16.290Z,19.78
2024-04-12T17:05:49.400Z,19.76
2024-04-12T17:08:17.256Z,19.75
2024-04-12T17:10:47.993Z,19.72
2024-04-12T17:13:15.930Z,19.69
2024-04-12T17:15:46.238Z,19.68
2024-04-12T17:18:13.743Z,19.61
2024-04-12T17:20:46.102Z,19.55
2024-04-12T17:23:15.111Z,19.53
2024-04-12T17:25:46.009Z,19.47
2024-04-12T17:28:13.464Z,19.44
2024-04-12T17:30:43.642Z,19.45
2024-04-12T17:33:11.122Z,19.36
2024-04-12T17:35:41.063Z,19.28
2024-04-12T17:38:08.357Z,19.23
2024-04-12T17:40:39.517Z,19.14
2024-04-12T17:43:06.765Z,19.04
2024-04-12T17:45:36.586Z,18.96
2024-04-12T17:48:04.159Z,18.83
2024-04-12T17:50:34.258Z,18.73
2024-04-12T17:53:02.855Z,18.64
2024-04-12T17:55:32.999Z,18.52
2024-04-12T17:58:05.563Z,18.48
2024-04-12T18:00:35.848Z,18.48
2024-04-12T18:03:03.335Z,18.45
2024-04-12T18:05:33.777Z,18.49
2024-04-12T18:08:01.061Z,18.49
2024-04-12T18:10:30.936Z,18.47
2024-04-12T18:12:58.198Z,18.44
2024-04-12T18:15:29.101Z,18.39
2024-04-12T18:17:56.607Z,18.38
2024-04-12T18:20:26.511Z,18.38
2024-04-12T18:22:54.854Z,18.27
2024-04-12T18:25:24.671Z,18.24
2024-04-12T18:27:51.921Z,18.20
2024-04-12T18:30:21.816Z,18.14
2024-04-12T18:32:49.164Z,18.11
2024-04-12T18:35:20.853Z,18.04
2024-04-12T18:38:07.156Z,18.00
2024-04-12T18:40:52.984Z,17.96
2024-04-12T18:43:38.733Z,17.90
2024-04-12T18:46:08.558Z,17.90
2024-04-12T18:48:38.698Z,17.84
2024-04-12T18:51:06.625Z,17.83
2024-04-12T18:53:36.552Z,17.81
2024-04-12T18:56:04.126Z,17.79
2024-04-12T18:58:35.358Z,17.74
2024-04-12T19:01:05.039Z,17.70
2024-04-12T19:03:35.288Z,17.65
2024-04-12T19:06:07.599Z,17.59
2024-04-12T19:08:37.814Z,17.60
2024-04-12T19:11:07.784Z,17.48
2024-04-12T19:13:38.430Z,17.38
2024-04-12T19:16:09.703Z,17.25
2024-04-12T19:18:37.108Z,17.18
2024-04-12T19:21:10.570Z,17.12
2024-04-12T19:24:15.428Z,17.04
2024-04-12T19:26:45.411Z,17.00
2024-04-12T19:29:13.033Z,16.92
2024-04-12T19:31:45.716Z,16.88
2024-04-12T19:34:14.565Z,16.83
2024-04-12T19:36:46.134Z,16.77
2024-04-12T19:39:13.964Z,16.69
2024-04-12T19:41:44.007Z,16.62
2024-04-12T19:44:11.467Z,16.57
2024-04-12T19:46:41.338Z,16.49
2024-04-12T19:49:09.169Z,16.44
2024-04-12T19:51:39.554Z,16.36
2024-04-12T19:54:06.933Z,16.28
2024-04-12T19:56:36.843Z,16.23
2024-04-12T19:59:04.251Z,16.19
2024-04-12T20:01:34.057Z,16.12
2024-04-12T20:04:01.623Z,16.08
2024-04-12T20:06:35.150Z,16.02
2024-04-12T20:09:02.563Z,16.00
2024-04-12T20:14:02.213Z,15.90
2024-04-12T20:16:32.298Z,15.87
2024-04-12T20:19:00.836Z,15.82
2024-04-12T20:21:33.775Z,15.82
2024-04-12T20:24:02.073Z,15.79
2024-04-12T20:26:37.413Z,15.74
2024-04-12T20:29:08.085Z,15.70
2024-04-12T20:31:39.096Z,15.68
2024-04-12T20:34:25.606Z,15.65
2024-04-12T20:36:55.519Z,15.61
2024-04-12T20:39:23.561Z,15.60
2024-04-12T20:41:58.204Z,15.58
2024-04-12T20:44:27.440Z,15.56
2024-04-12T20:46:58.591Z,15.57
2024-04-12T20:49:26.080Z,15.53
2024-04-12T20:51:55.981Z,15.50
2024-04-12T20:54:23.906Z,15.49
2024-04-12T20:56:53.961Z,15.47
2024-04-12T20:59:21.905Z,15.43
2024-04-12T21:01:54.843Z,15.43
2024-04-12T21:04:22.424Z,15.39
2024-04-12T21:07:09.724Z,15.37
2024-04-12T21:09:41.043Z,15.33
2024-04-12T21:12:10.306Z,15.33
2024-04-12T21:14:43.807Z,15.27
2024-04-12T21:17:13.075Z,15.25
2024-04-12T21:19:42.982Z,15.22
2024-04-12T21:22:10.313Z,15.20
2024-04-12T21:24:40.765Z,15.16
2024-04-12T21:27:09.009Z,15.12
2024-04-12T21:29:39.734Z,15.10
2024-04-12T21:32:07.537Z,15.06
2024-04-12T21:34:37.437Z,15.05
2024-04-12T21:37:05.503Z,15.03
2024-04-12T21:39:35.556Z,14.99
2024-04-12T21:42:02.862Z,14.98
2024-04-12T21:44:32.680Z,14.95
2024-04-12T21:46:59.991Z,14.89
2024-04-12T21:49:32.773Z,14.88
2024-04-12T21:52:00.043Z,14.88
2024-04-12T21:54:29.934Z,14.82
2024-04-12T21:56:57.359Z,14.79
2024-04-12T21:59:27.552Z,14.79
2024-04-12T22:01:55.063Z,14.75
2024-04-12T22:04:27.621Z,14.72
2024-04-12T22:06:55.514Z,14.74
2024-04-12T22:09:25.321Z,14.77
2024-04-12T22:11:52.741Z,14.79
2024-04-12T22:14:23.874Z,14.79
2024-04-12T22:16:52.153Z,14.82
2024-04-12T22:19:22.472Z,14.85
2024-04-12T22:21:50.140Z,14.86
2024-04-12T22:24:20.005Z,14.85
2024-04-12T22:26:49.388Z,14.81
2024-04-12T22:29:19.832Z,14.84
2024-04-12T22:31:49.369Z,14.82
2024-04-12T22:34:22.007Z,14.79
2024-04-12T22:36:52.170Z,14.85
2024-04-12T22:39:22.946Z,14.82
2024-04-12T22:41:50.197Z,14.84
2024-04-12T22:44:19.985Z,14.85
2024-04-12T22:46:48.959Z,14.86
2024-04-12T22:49:20.798Z,14.89
2024-04-12T22:51:48.129Z,14.89
2024-04-12T22:54:18.662Z,14.86
2024-04-12T22:56:45.883Z,14.85
2024-04-12T22:59:15.861Z,14.84
2024-04-12T23:01:43.405Z,14.78
2024-04-12T23:04:13.872Z,14.75
2024-04-12T23:06:41.969Z,14.74
2024-04-12T23:09:12.004Z,14.72
2024-04-12T23:11:39.240Z,14.72
2024-04-12T23:14:09.059Z,14.68
2024-04-12T23:16:37.405Z,14.67
2024-04-12T23:19:07.589Z,14.63
2024-04-12T23:21:34.936Z,14.58
2024-04-12T23:24:05.069Z,14.53
2024-04-12T23:26:32.679Z,14.47
2024-04-12T23:29:02.484Z,14.40
2024-04-12T23:31:29.772Z,14.37
2024-04-12T23:33:59.634Z,14.31
2024-04-12T23:36:27.010Z,14.27
2024-04-12T23:38:57.284Z,14.20
2024-04-12T23:41:24.522Z,14.14
2024-04-12T23:43:55.235Z,14.14
2024-04-12T23:46:24.012Z,14.12
2024-04-12T23:48:54.592Z,14.05
2024-04-12T23:51:21.989Z,14.05
2024-04-12T23:53:51.999Z,14.00
2024-04-12T23:56:19.264Z,13.96
2024-04-12T23:58:49.134Z,13.93
